Time;durP1;ratioP1;P1;durP2;ratioP2;P2;SDS_P1;SDS_P2;PMS_P1;PMS_P2;Temp;Humidity;BMP_temperature;BMP_pressure;BME280_temperature;BME280_humidity;BME280_pressure;Samples;Min_cycle;Max_cycle;Signal;HPM_P1;HPM_P2
2023/10/22 00:02:07;;;;;;;34.30;22.20;;;;;;;12.72;98.72;99121.05;130028;1256;114731;-58
2023/10/22 00:05:10;;;;;;;55.80;28.50;;;;;;;12.74;98.87;99116.27;129560;1260;116363;-59
2023/10/22 00:08:12;;;;;;;43.30;24.10;;;;;;;12.76;98.77;99111.23;129901;1260;114737;-58
2023/10/22 00:11:15;;;;;;;38.40;23.10;;;;;;;12.78;98.80;99109.30;129932;1270;114674;-68
2023/10/22 00:14:18;;;;;;;42.10;25.00;;;;;;;12.80;98.76;99110.60;130070;1255;114799;-59
2023/10/22 00:17:20;;;;;;;41.00;24.00;;;;;;;12.79;98.75;99119.27;129649;1263;114760;-58
2023/10/22 00:20:23;;;;;;;40.70;25.70;;;;;;;12.79;98.88;99125.95;130002;1278;114816;-58
2023/10/22 00:23:25;;;;;;;41.20;25.90;;;;;;;12.80;98.97;99127.69;129880;1259;114848;-59
2023/10/22 00:26:27;;;;;;;42.50;25.90;;;;;;;12.81;99.15;99116.42;129890;1255;115595;-62
2023/10/22 00:29:30;;;;;;;43.00;26.30;;;;;;;12.84;99.25;99109.23;129694;1264;127866;-63
2023/10/22 00:32:32;;;;;;;47.20;26.50;;;;;;;12.85;99.43;99100.33;129899;1270;114887;-62
2023/10/22 00:35:35;;;;;;;43.90;24.80;;;;;;;12.87;99.39;99100.72;130018;1255;115219;-62
2023/10/22 00:38:37;;;;;;;38.40;24.80;;;;;;;12.89;99.35;99104.36;130041;1259;114668;-64
2023/10/22 00:41:39;;;;;;;47.00;26.70;;;;;;;12.91;99.55;99100.08;129523;1272;114626;-61
2023/10/22 00:44:42;;;;;;;61.50;28.30;;;;;;;12.93;99.62;99100.09;129987;1256;114737;-59
2023/10/22 00:47:44;;;;;;;61.80;28.70;;;;;;;12.96;99.90;99102.77;129818;1261;114761;-62
2023/10/22 00:50:47;;;;;;;46.70;25.90;;;;;;;12.99;99.80;99099.84;129839;1260;115355;-59
2023/10/22 00:53:50;;;;;;;51.20;25.30;;;;;;;13.00;99.61;99102.40;129565;1258;115138;-59
2023/10/22 00:56:53;;;;;;;46.60;25.70;;;;;;;13.01;99.72;99106.61;131102;1259;115138;-66
2023/10/22 00:59:55;;;;;;;45.40;25.50;;;;;;;13.02;99.86;99107.25;129945;1259;115112;-64
2023/10/22 01:03:01;;;;;;;55.50;27.20;;;;;;;13.03;99.75;99108.10;129754;1259;114833;-61
2023/10/22 01:06:04;;;;;;;51.80;25.60;;;;;;;13.04;99.73;99113.39;129834;1257;127501;-63
2023/10/22 01:09:09;;;;;;;52.20;25.50;;;;;;;13.05;99.66;99109.52;129603;1260;114718;-61
2023/10/22 01:12:12;;;;;;;47.10;24.60;;;;;;;13.06;99.65;99106.77;129937;1260;114706;-59
2023/10/22 01:15:14;;;;;;;55.50;28.40;;;;;;;13.05;99.64;99118.64;129992;1259;114722;-70
2023/10/22 01:18:16;;;;;;;63.90;32.50;;;;;;;13.05;99.57;99109.52;129982;1256;114715;-61
2023/10/22 01:21:19;;;;;;;59.30;30.60;;;;;;;13.04;99.70;99107.61;129677;1264;114877;-60
2023/10/22 01:24:21;;;;;;;65.30;30.80;;;;;;;13.03;99.54;99093.20;129840;1278;114840;-60
2023/10/22 01:27:23;;;;;;;60.90;32.10;;;;;;;13.01;99.64;99091.36;129901;1259;115490;-58
2023/10/22 01:30:27;;;;;;;52.40;27.50;;;;;;;13.00;99.72;99095.78;129524;1257;116558;-58
2023/10/22 01:33:29;;;;;;;61.50;29.40;;;;;;;12.98;99.50;99094.34;129973;1278;114856;-60
2023/10/22 01:36:31;;;;;;;60.20;28.90;;;;;;;12.96;99.54;99089.31;129917;1257;114706;-60
2023/10/22 01:39:34;;;;;;;55.80;28.10;;;;;;;12.95;99.67;99091.34;129895;1257;114786;-59
2023/10/22 01:42:36;;;;;;;56.90;28.60;;;;;;;12.95;99.82;99089.40;129995;1259;114718;-59
2023/10/22 01:45:38;;;;;;;44.80;29.00;;;;;;;12.95;99.95;99091.70;129674;1278;127801;-63
2023/10/22 01:48:40;;;;;;;47.70;28.30;;;;;;;12.98;100.00;99085.59;129960;1256;115213;-58
2023/10/22 01:51:43;;;;;;;44.30;28.30;;;;;;;13.00;100.00;99087.52;129876;1256;114772;-61
2023/10/22 01:54:46;;;;;;;40.90;28.40;;;;;;;13.03;100.00;99090.33;130004;1269;114740;-61
2023/10/22 01:57:48;;;;;;;46.20;29.10;;;;;;;13.07;100.00;99089.66;129930;1257;114770;-61
2023/10/22 02:01:01;;;;;;;46.80;30.60;;;;;;;13.13;100.00;99094.05;129921;1260;114805;-59
2023/10/22 02:04:03;;;;;;;42.90;28.80;;;;;;;13.18;100.00;99091.68;129836;1257;128811;-63
2023/10/22 02:07:05;;;;;;;43.40;28.80;;;;;;;13.23;100.00;99089.14;129961;1258;114783;-66
2023/10/22 02:10:08;;;;;;;46.10;31.50;;;;;;;13.27;100.00;99083.23;129962;1259;114844;-60
2023/10/22 02:13:10;;;;;;;43.20;29.70;;;;;;;13.32;100.00;99083.97;129561;1257;114785;-59
2023/10/22 02:16:13;;;;;;;47.70;32.80;;;;;;;13.35;100.00;99075.96;129871;1256;114798;-60
2023/10/22 02:19:15;;;;;;;52.90;30.80;;;;;;;13.39;100.00;99072.40;129968;1271;114705;-59
2023/10/22 02:22:18;;;;;;;46.10;31.80;;;;;;;13.43;100.00;99067.81;129935;1275;114738;-61
2023/10/22 02:25:20;;;;;;;108.70;35.10;;;;;;;13.47;100.00;99064.50;129819;1259;114798;-60
2023/10/22 02:28:22;;;;;;;81.00;38.70;;;;;;;13.49;100.00;99066.79;129979;1256;115385;-60
2023/10/22 02:31:24;;;;;;;55.30;37.80;;;;;;;13.46;100.00;99056.33;129520;1267;115182;-60
2023/10/22 02:34:27;;;;;;;56.00;36.30;;;;;;;13.39;100.00;99055.01;129945;1259;114704;-60
2023/10/22 02:37:29;;;;;;;52.20;33.50;;;;;;;13.34;100.00;99050.95;129899;1269;115135;-62
2023/10/22 02:40:35;;;;;;;52.40;34.70;;;;;;;13.31;100.00;99052.42;129791;1268;114763;-62
2023/10/22 02:43:37;;;;;;;51.90;34.70;;;;;;;13.26;100.00;99049.06;129504;1278;114641;-64
2023/10/22 02:46:39;;;;;;;49.40;34.20;;;;;;;13.21;100.00;99045.91;129990;1257;114814;-62
2023/10/22 02:49:42;;;;;;;50.60;34.20;;;;;;;13.17;100.00;99048.00;129716;1262;114759;-61
2023/10/22 02:52:44;;;;;;;52.10;34.10;;;;;;;13.14;100.00;99047.85;129654;1264;115199;-63
2023/10/22 02:55:46;;;;;;;55.60;32.50;;;;;;;13.13;100.00;99046.58;129808;1259;115072;-62
2023/10/22 02:58:48;;;;;;;55.50;34.10;;;;;;;13.10;100.00;99052.88;129960;1260;114814;-62
2023/10/22 03:01:50;;;;;;;48.50;32.50;;;;;;;13.09;100.00;99048.80;129799;1259;114684;-61
2023/10/22 03:04:52;;;;;;;49.70;33.90;;;;;;;13.08;100.00;99049.77;129786;1260;115202;-61
2023/10/22 03:07:54;;;;;;;59.70;35.70;;;;;;;13.10;100.00;99050.05;129966;1270;114881;-60
2023/10/22 03:10:56;;;;;;;53.80;32.60;;;;;;;13.11;100.00;99052.98;129450;1260;128495;-59
2023/10/22 03:13:58;;;;;;;56.50;34.50;;;;;;;13.13;100.00;99061.44;129908;1256;114759;-60
2023/10/22 03:17:00;;;;;;;52.80;34.50;;;;;;;13.16;100.00;99058.45;129929;1256;114669;-59
2023/10/22 03:20:03;;;;;;;49.40;33.70;;;;;;;13.21;100.00;99056.50;129534;1278;114901;-60
2023/10/22 03:23:06;;;;;;;50.10;34.70;;;;;;;13.23;100.00;99058.30;129877;1260;114782;-60
2023/10/22 03:26:18;;;;;;;53.40;33.80;;;;;;;13.26;100.00;99062.70;129835;1278;115186;-63
2023/10/22 03:29:20;;;;;;;57.60;37.40;;;;;;;13.30;100.00;99057.20;127447;1278;3263419;-59
2023/10/22 03:32:22;;;;;;;57.90;35.10;;;;;;;13.32;100.00;99057.92;129822;1256;114698;-59
2023/10/22 03:35:25;;;;;;;56.90;35.00;;;;;;;13.32;100.00;99065.79;129906;1258;114836;-59
2023/10/22 03:38:27;;;;;;;53.90;34.80;;;;;;;13.33;100.00;99066.40;129543;1262;114827;-58
2023/10/22 03:41:30;;;;;;;58.50;34.60;;;;;;;13.35;100.00;99063.96;129814;1278;115007;-58
2023/10/22 03:44:33;;;;;;;48.00;33.50;;;;;;;13.35;100.00;99061.11;129950;1257;114737;-59
2023/10/22 03:47:35;;;;;;;54.60;36.40;;;;;;;13.35;100.00;99058.80;129903;1259;114812;-58
2023/10/22 03:50:37;;;;;;;54.30;34.60;;;;;;;13.38;100.00;99061.05;129865;1260;115240;-63
2023/10/22 03:53:39;;;;;;;50.40;32.50;;;;;;;13.40;100.00;99060.55;130006;1256;115268;-63
2023/10/22 03:56:41;;;;;;;49.20;34.40;;;;;;;13.41;100.00;99060.42;129827;1256;114717;-59
2023/10/22 03:59:43;;;;;;;47.70;32.60;;;;;;;13.42;100.00;99060.91;130027;1256;114723;-59
2023/10/22 04:02:46;;;;;;;48.10;32.20;;;;;;;13.45;100.00;99058.20;129819;1259;114772;-60
2023/10/22 04:05:55;;;;;;;44.90;31.00;;;;;;;13.47;100.00;99053.52;129896;1259;114760;-59
2023/10/22 04:08:58;;;;;;;57.80;36.50;;;;;;;13.50;100.00;99056.52;129853;1259;128575;-59
2023/10/22 04:12:01;;;;;;;49.90;31.30;;;;;;;13.53;100.00;99054.13;129860;1259;115001;-59
2023/10/22 04:15:04;;;;;;;48.20;32.90;;;;;;;13.57;100.00;99050.60;129882;1259;115231;-59
2023/10/22 04:18:06;;;;;;;48.20;31.30;;;;;;;13.59;100.00;99055.39;129847;1259;114832;-64
2023/10/22 04:21:15;;;;;;;45.80;31.40;;;;;;;13.62;100.00;99058.92;129832;1259;114779;-62
2023/10/22 04:24:17;;;;;;;50.80;32.20;;;;;;;13.66;100.00;99062.91;129766;1273;115014;-62
2023/10/22 04:27:19;;;;;;;45.50;31.10;;;;;;;13.69;100.00;99062.45;129798;1257;114755;-62
2023/10/22 04:30:21;;;;;;;49.10;30.60;;;;;;;13.72;100.00;99060.44;129905;1259;114690;-63
2023/10/22 04:33:23;;;;;;;44.80;30.00;;;;;;;13.74;100.00;99056.30;129807;1276;115562;-60
2023/10/22 04:36:26;;;;;;;43.00;29.90;;;;;;;13.76;100.00;99057.05;129934;1259;114798;-60
2023/10/22 04:39:28;;;;;;;46.50;30.30;;;;;;;13.78;100.00;99063.52;129815;1259;114706;-60
2023/10/22 04:42:30;;;;;;;52.30;30.80;;;;;;;13.81;100.00;99064.73;129878;1278;114923;-59
2023/10/22 04:45:32;;;;;;;54.10;31.00;;;;;;;13.83;100.00;99065.83;129847;1259;114852;-60
2023/10/22 04:48:35;;;;;;;50.00;31.00;;;;;;;13.85;100.00;99062.93;129689;1278;114848;-62
2023/10/22 04:51:37;;;;;;;44.70;30.60;;;;;;;13.89;100.00;99064.47;129892;1257;114729;-60
2023/10/22 04:54:39;;;;;;;50.90;32.30;;;;;;;13.89;100.00;99064.78;129887;1278;115224;-60
2023/10/22 04:57:41;;;;;;;45.50;31.00;;;;;;;13.91;100.00;99059.06;129768;1260;114796;-60
2023/10/22 05:00:47;;;;;;;44.90;29.70;;;;;;;13.93;100.00;99059.95;129845;1259;114716;-61
2023/10/22 05:03:49;;;;;;;43.50;30.50;;;;;;;13.94;100.00;99063.86;129592;1263;114777;-60
2023/10/22 05:06:53;;;;;;;45.80;30.30;;;;;;;13.95;100.00;99068.24;129879;1259;114755;-60
2023/10/22 05:09:56;;;;;;;31.00;21.10;;;;;;;13.97;100.00;99069.85;129919;1259;114839;-63
2023/10/22 05:12:58;;;;;;;49.30;31.30;;;;;;;13.99;100.00;99071.52;129845;1262;114792;-60
2023/10/22 05:16:00;;;;;;;49.20;30.10;;;;;;;14.00;100.00;99072.89;129900;1258;114805;-61
2023/10/22 05:19:03;;;;;;;40.80;30.40;;;;;;;13.97;100.00;99071.09;129585;1257;114815;-61
2023/10/22 05:22:05;;;;;;;42.80;30.30;;;;;;;13.98;100.00;99074.44;129667;1262;114764;-61
2023/10/22 05:25:08;;;;;;;39.20;28.80;;;;;;;13.98;100.00;99073.92;129803;1278;114726;-61
2023/10/22 05:28:10;;;;;;;35.00;26.50;;;;;;;13.98;100.00;99076.40;129939;1255;114799;-61
2023/10/22 05:31:18;;;;;;;40.70;28.60;;;;;;;13.99;100.00;99074.53;129726;1261;128893;-61
2023/10/22 05:34:20;;;;;;;39.60;28.40;;;;;;;14.02;100.00;99074.17;129538;1278;115237;-61
2023/10/22 05:37:22;;;;;;;42.70;30.00;;;;;;;14.02;100.00;99072.16;129849;1257;115275;-60
2023/10/22 05:40:25;;;;;;;43.10;30.90;;;;;;;14.03;100.00;99074.02;129944;1259;114781;-61
2023/10/22 05:43:27;;;;;;;40.40;28.20;;;;;;;14.03;100.00;99076.77;129963;1270;114706;-61
2023/10/22 05:46:33;;;;;;;40.70;28.00;;;;;;;14.04;100.00;99081.37;129846;1261;115100;-61
2023/10/22 05:49:35;;;;;;;41.30;28.60;;;;;;;14.06;100.00;99082.05;129598;1278;128451;-61
2023/10/22 05:52:37;;;;;;;87.40;30.60;;;;;;;14.08;100.00;99082.79;129890;1257;116124;-62
2023/10/22 05:55:40;;;;;;;84.10;31.20;;;;;;;14.07;100.00;99080.37;130026;1256;115025;-65
2023/10/22 05:58:43;;;;;;;77.90;34.00;;;;;;;14.06;100.00;99082.91;129783;1259;114725;-62
2023/10/22 06:01:45;;;;;;;40.00;28.00;;;;;;;14.04;100.00;99082.77;129922;1256;114655;-61
2023/10/22 06:04:47;;;;;;;45.80;30.10;;;;;;;14.04;100.00;99083.69;129808;1278;114787;-61
2023/10/22 06:07:52;;;;;;;42.50;28.90;;;;;;;14.06;100.00;99083.32;129875;1258;114755;-60
2023/10/22 06:10:54;;;;;;;47.40;33.20;;;;;;;14.07;100.00;99088.25;129868;1259;128847;-60
2023/10/22 06:13:56;;;;;;;47.50;32.70;;;;;;;14.08;100.00;99090.86;129854;1262;114715;-60
2023/10/22 06:16:58;;;;;;;43.10;30.20;;;;;;;14.09;100.00;99094.02;130002;1259;114806;-60
2023/10/22 06:20:00;;;;;;;45.00;33.20;;;;;;;14.10;100.00;99102.34;129912;1259;115084;-60
2023/10/22 06:23:04;;;;;;;40.70;28.20;;;;;;;14.11;100.00;99108.73;129855;1278;114844;-61
2023/10/22 06:26:13;;;;;;;40.10;28.30;;;;;;;14.13;100.00;99118.26;129849;1257;114723;-61
2023/10/22 06:29:16;;;;;;;40.00;29.60;;;;;;;14.14;100.00;99118.38;129840;1261;128791;-61
2023/10/22 06:32:18;;;;;;;47.80;30.40;;;;;;;14.16;100.00;99119.31;129899;1259;114724;-63
2023/10/22 06:35:21;;;;;;;45.50;27.50;;;;;;;14.16;100.00;99111.58;129895;1259;115183;-62
2023/10/22 06:38:23;;;;;;;37.10;28.70;;;;;;;14.15;100.00;99117.04;129729;1262;114904;-62
2023/10/22 06:41:26;;;;;;;51.00;28.80;;;;;;;14.17;100.00;99117.48;129848;1257;114837;-63
2023/10/22 06:44:28;;;;;;;39.00;27.20;;;;;;;14.16;100.00;99114.80;129910;1259;114761;-60
2023/10/22 06:47:35;;;;;;;34.70;27.50;;;;;;;14.20;100.00;99111.05;130040;1257;115570;-61
2023/10/22 06:50:37;;;;;;;34.80;25.90;;;;;;;14.22;100.00;99108.74;129692;1262;127861;-61
2023/10/22 06:53:39;;;;;;;34.70;25.70;;;;;;;14.23;100.00;99111.49;129835;1271;114710;-62
2023/10/22 06:56:42;;;;;;;38.00;26.80;;;;;;;14.26;100.00;99112.85;129873;1278;114837;-61
2023/10/22 06:59:48;;;;;;;37.50;26.80;;;;;;;14.29;100.00;99113.39;129966;1257;114718;-60
2023/10/22 07:02:50;;;;;;;34.60;25.50;;;;;;;14.30;100.00;99115.81;129625;1257;115404;-61
2023/10/22 07:05:52;;;;;;;33.50;25.40;;;;;;;14.33;100.00;99121.81;129854;1259;114780;-61
2023/10/22 07:08:54;;;;;;;37.10;25.10;;;;;;;14.35;100.00;99122.40;129859;1260;114768;-62
2023/10/22 07:11:56;;;;;;;33.80;24.90;;;;;;;14.35;100.00;99122.56;130004;1261;114725;-64
2023/10/22 07:14:59;;;;;;;32.80;23.60;;;;;;;14.36;100.00;99126.05;129941;1256;116341;-62
2023/10/22 07:18:01;;;;;;;32.40;24.60;;;;;;;14.37;100.00;99128.36;130003;1259;115126;-61
2023/10/22 07:21:03;;;;;;;32.90;23.70;;;;;;;14.37;100.00;99132.23;129863;1255;114831;-61
2023/10/22 07:24:06;;;;;;;55.70;36.30;;;;;;;14.38;100.00;99133.98;129795;1259;114767;-62
2023/10/22 07:27:08;;;;;;;48.50;34.10;;;;;;;14.37;100.00;99136.77;129887;1259;115781;-61
2023/10/22 07:30:11;;;;;;;53.50;32.60;;;;;;;14.36;100.00;99136.84;129968;1259;114824;-64
2023/10/22 07:33:13;;;;;;;47.40;31.50;;;;;;;14.35;100.00;99137.06;129975;1259;114738;-62
2023/10/22 07:36:15;;;;;;;53.20;36.50;;;;;;;14.36;100.00;99133.77;129535;1257;115221;-60
2023/10/22 07:39:17;;;;;;;55.50;38.10;;;;;;;14.38;100.00;99135.98;129608;1259;115305;-61
2023/10/22 07:42:19;;;;;;;59.30;40.90;;;;;;;14.38;100.00;99137.92;129778;1259;114691;-61
2023/10/22 07:45:21;;;;;;;60.50;41.80;;;;;;;14.37;100.00;99138.21;129523;1257;114803;-61
2023/10/22 07:48:23;;;;;;;58.30;41.00;;;;;;;14.36;100.00;99140.64;129851;1259;114729;-62
2023/10/22 07:51:27;;;;;;;63.60;40.80;;;;;;;14.36;100.00;99141.66;129862;1261;115000;-61
2023/10/22 07:54:30;;;;;;;53.60;38.40;;;;;;;14.36;100.00;99137.04;129916;1278;129204;-61
2023/10/22 07:57:32;;;;;;;48.70;35.30;;;;;;;14.35;100.00;99141.24;129853;1256;114751;-63
2023/10/22 08:00:34;;;;;;;39.80;29.40;;;;;;;14.35;100.00;99146.30;129983;1259;114676;-62
2023/10/22 08:03:37;;;;;;;31.70;25.40;;;;;;;14.34;100.00;99154.26;129918;1275;114752;-62
2023/10/22 08:06:39;;;;;;;32.40;27.00;;;;;;;14.32;100.00;99156.91;129837;1257;114681;-62
2023/10/22 08:09:41;;;;;;;31.30;24.90;;;;;;;14.30;100.00;99164.50;129792;1259;115438;-62
2023/10/22 08:12:44;;;;;;;34.30;24.70;;;;;;;14.27;100.00;99169.86;129639;1262;114911;-64
2023/10/22 08:15:47;;;;;;;31.20;23.90;;;;;;;14.24;100.00;99171.73;129655;1278;128470;-63
2023/10/22 08:18:50;;;;;;;29.80;23.30;;;;;;;14.24;100.00;99173.20;129805;1257;114715;-62
2023/10/22 08:21:52;;;;;;;29.20;22.20;;;;;;;14.24;100.00;99176.46;129867;1259;114770;-62
2023/10/22 08:24:54;;;;;;;28.30;22.80;;;;;;;14.22;100.00;99180.57;129871;1275;114830;-61
2023/10/22 08:27:56;;;;;;;27.30;21.90;;;;;;;14.19;100.00;99189.97;129783;1259;114770;-63
2023/10/22 08:30:59;;;;;;;29.30;22.50;;;;;;;14.15;100.00;99189.24;129553;1264;114912;-62
2023/10/22 08:34:02;;;;;;;32.70;23.20;;;;;;;14.12;100.00;99189.44;129624;1256;128491;-62
2023/10/22 08:37:04;;;;;;;31.20;23.60;;;;;;;14.11;100.00;99193.09;129786;1259;114707;-62
2023/10/22 08:40:12;;;;;;;31.30;22.90;;;;;;;14.10;100.00;99194.64;129794;1257;114766;-62
2023/10/22 08:43:16;;;;;;;31.90;24.00;;;;;;;14.08;100.00;99196.77;129586;1259;114910;-61
2023/10/22 08:46:18;;;;;;;30.30;24.10;;;;;;;14.04;100.00;99195.48;129788;1260;114633;-61
2023/10/22 08:49:22;;;;;;;36.50;28.20;;;;;;;14.01;100.00;99202.91;129794;1259;114735;-61
2023/10/22 08:52:24;;;;;;;42.10;28.40;;;;;;;13.98;100.00;99204.42;129737;1259;115173;-63
2023/10/22 08:55:26;;;;;;;41.50;31.00;;;;;;;13.97;100.00;99206.63;129787;1259;114712;-61
2023/10/22 08:58:28;;;;;;;39.20;27.80;;;;;;;13.96;100.00;99206.16;129481;1263;114890;-63
2023/10/22 09:01:31;;;;;;;40.20;30.40;;;;;;;13.97;100.00;99209.38;129641;1279;114809;-62
2023/10/22 09:04:33;;;;;;;36.80;27.40;;;;;;;13.95;100.00;99212.21;129728;1256;114796;-62
2023/10/22 09:07:52;;;;;;;38.90;28.00;;;;;;;13.92;100.00;99217.48;129834;1257;115754;-62
2023/10/22 09:11:13;;;;;;;40.50;26.70;;;;;;;13.91;100.00;99217.94;129746;1271;128490;-62
2023/10/22 09:14:23;;;;;;;35.20;25.30;;;;;;;13.87;100.00;99220.91;129866;1256;115166;-62
2023/10/22 09:17:29;;;;;;;35.60;25.30;;;;;;;13.83;100.00;99225.34;129845;1262;114752;-61
2023/10/22 09:20:34;;;;;;;37.90;25.50;;;;;;;13.82;100.00;99225.27;129667;1265;114811;-62
2023/10/22 09:23:36;;;;;;;33.40;23.90;;;;;;;13.80;100.00;99228.83;129771;1259;114758;-61
2023/10/22 09:26:49;;;;;;;43.00;28.20;;;;;;;13.77;100.00;99230.52;129731;1270;114735;-61
2023/10/22 09:29:58;;;;;;;71.70;45.20;;;;;;;13.75;100.00;99237.09;129889;1259;115977;-63
2023/10/22 09:33:00;;;;;;;68.40;42.10;;;;;;;13.75;100.00;99239.14;129761;1259;114709;-63
2023/10/22 09:36:05;;;;;;;112.10;57.20;;;;;;;13.75;100.00;99242.89;129654;1278;115173;-63
2023/10/22 09:39:07;;;;;;;271.50;118.40;;;;;;;13.72;100.00;99242.55;129637;1264;114800;-61
2023/10/22 09:42:14;;;;;;;189.90;93.80;;;;;;;13.74;100.00;99243.50;129810;1259;114713;-60
2023/10/22 09:45:20;;;;;;;38.50;25.00;;;;;;;13.74;100.00;99243.33;129777;1259;115238;-61
2023/10/22 09:48:23;;;;;;;23.90;19.80;;;;;;;13.72;100.00;99247.23;129642;1262;114866;-60
2023/10/22 09:51:38;;;;;;;23.20;18.40;;;;;;;13.70;100.00;99244.52;129583;1262;114748;-61
2023/10/22 09:54:41;;;;;;;20.40;15.10;;;;;;;13.68;100.00;99252.04;129568;1265;114926;-62
2023/10/22 09:57:46;;;;;;;20.30;14.20;;;;;;;13.63;100.00;99256.54;129793;1260;114668;-60
2023/10/22 10:00:48;;;;;;;;;;;;;;;13.60;100.00;99257.70;129842;1259;114720;-60
2023/10/22 10:03:51;;;;;;;10.00;9.00;;;;;;;13.55;100.00;99258.83;129714;1259;115164;-61
2023/10/22 10:06:53;;;;;;;9.00;7.60;;;;;;;13.51;100.00;99262.68;129819;1259;114815;-60
2023/10/22 10:09:56;;;;;;;7.30;6.00;;;;;;;13.49;100.00;99257.83;129835;1259;115591;-61
2023/10/22 10:12:59;;;;;;;8.00;5.50;;;;;;;13.48;100.00;99261.73;129458;1265;115236;-61
2023/10/22 10:16:05;;;;;;;5.80;5.20;;;;;;;13.45;100.00;99264.21;129830;1278;114923;-63
2023/10/22 10:19:10;;;;;;;4.90;4.40;;;;;;;13.41;100.00;99265.30;129748;1259;116402;-61
2023/10/22 10:22:41;;;;;;;6.30;4.60;;;;;;;13.38;100.00;99261.71;129570;1260;114760;-62
2023/10/22 10:25:43;;;;;;;4.10;3.70;;;;;;;13.35;100.00;99262.30;129565;1264;114916;-62
2023/10/22 10:28:50;;;;;;;3.30;2.70;;;;;;;13.31;100.00;99260.43;129702;1257;114798;-61
2023/10/22 10:31:53;;;;;;;2.60;2.40;;;;;;;13.28;100.00;99259.65;129536;1257;128634;-62
2023/10/22 10:35:00;;;;;;;7.10;3.60;;;;;;;13.22;100.00;99263.48;129840;1258;115285;-61
2023/10/22 10:38:15;;;;;;;3.80;2.70;;;;;;;13.20;100.00;99267.70;129590;1261;114959;-62
2023/10/22 10:41:52;;;;;;;3.80;2.50;;;;;;;13.17;100.00;99271.04;129814;1259;115153;-62
2023/10/22 10:44:54;;;;;;;2.80;2.50;;;;;;;13.15;100.00;99276.60;129710;1259;114698;-62
2023/10/22 10:47:56;;;;;;;2.50;2.10;;;;;;;13.12;100.00;99273.90;129794;1259;114709;-62
2023/10/22 10:51:19;;;;;;;3.00;1.80;;;;;;;13.10;100.00;99278.04;130036;1278;114790;-62
2023/10/22 10:54:21;;;;;;;2.30;1.80;;;;;;;13.07;100.00;99282.73;129779;1259;115368;-62
2023/10/22 10:57:36;;;;;;;1.60;1.50;;;;;;;13.04;100.00;99284.36;129711;1262;114792;-62
2023/10/22 11:00:39;;;;;;;2.40;2.20;;;;;;;13.00;100.00;99293.65;129831;1259;115071;-62
2023/10/22 11:03:41;;;;;;;2.30;2.00;;;;;;;12.95;100.00;99292.23;129744;1278;114661;-62
2023/10/22 11:06:43;;;;;;;5.20;3.90;;;;;;;12.93;100.00;99300.27;129850;1261;114827;-63
2023/10/22 11:09:46;;;;;;;18.60;10.50;;;;;;;12.91;100.00;99303.95;129813;1259;116503;-62
2023/10/22 11:12:49;;;;;;;12.10;8.70;;;;;;;12.91;100.00;99303.30;129903;1260;114688;-62
2023/10/22 11:15:53;;;;;;;12.90;9.00;;;;;;;12.90;100.00;99305.36;129808;1261;114721;-62
2023/10/22 11:18:58;;;;;;;7.70;5.30;;;;;;;12.87;100.00;99303.60;129676;1262;114798;-62
2023/10/22 11:22:01;;;;;;;4.90;4.20;;;;;;;12.84;100.00;99307.55;129815;1275;128775;-63
2023/10/22 11:25:08;;;;;;;15.20;10.80;;;;;;;12.83;100.00;99305.68;129815;1267;114776;-62
2023/10/22 11:28:11;;;;;;;15.10;6.80;;;;;;;12.82;100.00;99313.13;129841;1271;114962;-63
2023/10/22 11:31:31;;;;;;;7.70;2.50;;;;;;;12.79;100.00;99316.05;130026;1262;115222;-63
2023/10/22 11:34:34;;;;;;;5.30;4.20;;;;;;;12.77;100.00;99322.76;129760;1259;114783;-62
2023/10/22 11:37:42;;;;;;;7.50;3.90;;;;;;;12.74;100.00;99326.92;129772;1267;114796;-62
2023/10/22 11:40:45;;;;;;;5.10;2.40;;;;;;;12.72;100.00;99329.23;129757;1263;115230;-62
2023/10/22 11:43:50;;;;;;;6.90;1.70;;;;;;;12.72;100.00;99340.54;129638;1265;114769;-62
2023/10/22 11:46:52;;;;;;;4.80;2.40;;;;;;;12.72;100.00;99342.58;129807;1259;114750;-62
2023/10/22 11:49:55;;;;;;;3.80;3.00;;;;;;;12.72;100.00;99345.39;129752;1274;114925;-62
2023/10/22 11:52:57;;;;;;;10.50;3.80;;;;;;;12.73;100.00;99348.89;129937;1269;114623;-62
2023/10/22 11:55:59;;;;;;;5.10;2.70;;;;;;;12.74;100.00;99355.46;129787;1275;128896;-62
2023/10/22 11:59:01;;;;;;;2.80;2.10;;;;;;;12.74;100.00;99362.98;129881;1259;114840;-62
2023/10/22 12:02:03;;;;;;;3.90;1.30;;;;;;;12.76;100.00;99367.98;129898;1259;114752;-63
2023/10/22 12:05:06;;;;;;;4.50;2.30;;;;;;;12.77;100.00;99375.43;129818;1259;114763;-62
2023/10/22 12:08:08;;;;;;;11.20;5.60;;;;;;;12.79;100.00;99381.76;129725;1265;114807;-62
2023/10/22 12:11:10;;;;;;;11.00;4.20;;;;;;;12.81;100.00;99384.36;129738;1259;114808;-63
2023/10/22 12:14:12;;;;;;;5.70;3.90;;;;;;;12.83;100.00;99388.83;129903;1269;114718;-62
2023/10/22 12:17:15;;;;;;;3.00;2.30;;;;;;;12.83;100.00;99396.52;129929;1257;128758;-63
2023/10/22 12:20:17;;;;;;;21.00;10.20;;;;;;;12.81;100.00;99398.11;129909;1259;114743;-61
2023/10/22 12:23:19;;;;;;;12.50;5.20;;;;;;;12.80;100.00;99401.60;129779;1259;115412;-63
2023/10/22 12:26:21;;;;;;;7.90;2.90;;;;;;;12.82;100.00;99408.26;129638;1259;114692;-64
2023/10/22 12:29:27;;;;;;;2.70;1.90;;;;;;;12.83;100.00;99412.12;129780;1275;114704;-62
2023/10/22 12:32:30;;;;;;;8.20;4.90;;;;;;;12.84;100.00;99415.25;129477;1265;114733;-63
2023/10/22 12:35:32;;;;;;;9.40;4.70;;;;;;;12.84;100.00;99422.05;129747;1259;114896;-62
2023/10/22 12:38:35;;;;;;;9.10;3.20;;;;;;;12.85;100.00;99424.51;129915;1256;115418;-62
2023/10/22 12:41:37;;;;;;;5.60;2.70;;;;;;;12.87;100.00;99428.13;129691;1263;115199;-62
2023/10/22 12:44:46;;;;;;;2.50;1.90;;;;;;;12.88;100.00;99430.35;129818;1259;115169;-62
2023/10/22 12:47:51;;;;;;;14.40;5.50;;;;;;;12.89;100.00;99432.82;129775;1257;114672;-62
2023/10/22 12:50:53;;;;;;;18.70;5.60;;;;;;;12.88;100.00;99438.44;129835;1260;114840;-62
2023/10/22 12:53:55;;;;;;;5.60;3.00;;;;;;;12.90;100.00;99444.61;129717;1259;115360;-62
2023/10/22 12:56:59;;;;;;;11.10;3.30;;;;;;;12.90;100.00;99449.20;129834;1278;114729;-62
2023/10/22 13:00:06;;;;;;;6.00;2.60;;;;;;;12.92;100.00;99453.94;129806;1259;115442;-62
2023/10/22 13:03:08;;;;;;;6.10;3.80;;;;;;;12.94;100.00;99464.52;129481;1261;114941;-65
2023/10/22 13:06:10;;;;;;;15.50;10.30;;;;;;;13.00;100.00;99470.79;129812;1260;114843;-65
2023/10/22 13:09:12;;;;;;;11.80;6.50;;;;;;;13.05;100.00;99476.14;129783;1257;114785;-64
2023/10/22 13:12:14;;;;;;;11.20;3.90;;;;;;;13.11;100.00;99482.67;129722;1261;115401;-64
2023/10/22 13:15:17;;;;;;;8.40;3.70;;;;;;;13.15;100.00;99483.06;129590;1259;114744;-64
2023/10/22 13:18:21;;;;;;;3.30;2.10;;;;;;;13.19;100.00;99489.28;129779;1260;115132;-65
2023/10/22 13:21:23;;;;;;;4.90;3.20;;;;;;;13.22;100.00;99489.58;129774;1275;114843;-65
2023/10/22 13:24:26;;;;;;;12.40;8.50;;;;;;;13.25;100.00;99497.42;129734;1264;114769;-66
2023/10/22 13:27:28;;;;;;;9.20;5.40;;;;;;;13.29;100.00;99503.92;129858;1269;115639;-65
2023/10/22 13:30:30;;;;;;;14.10;6.50;;;;;;;13.33;100.00;99511.38;129555;1265;114855;-65
2023/10/22 13:33:33;;;;;;;18.10;9.70;;;;;;;13.34;100.00;99517.06;129771;1273;114792;-63
2023/10/22 13:36:35;;;;;;;21.10;11.70;;;;;;;13.35;100.00;99519.41;129710;1270;114952;-63
2023/10/22 13:39:37;;;;;;;13.30;4.70;;;;;;;13.38;100.00;99525.38;129846;1278;114812;-62
2023/10/22 13:42:40;;;;;;;8.50;5.00;;;;;;;13.40;100.00;99533.69;129833;1259;114705;-64